Time;durP1;ratioP1;P1;durP2;ratioP2;P2;SDS_P1;SDS_P2;PMS_P1;PMS_P2;Temp;Humidity;BMP_temperature;BMP_pressure;BME280_temperature;BME280_humidity;BME280_pressure;Samples;Min_cycle;Max_cycle;Signal;HPM_P1;HPM_P2
2021/10/24 00:01:23;;;;;;;3.00;2.15;;;3.30;67.00;;;2.24;52.69;96249.59;5036266;28;20265;-78
2021/10/24 00:03:50;;;;;;;5.35;2.40;;;3.30;67.00;;;2.19;52.58;96236.16;5053022;28;20185;-79
2021/10/24 00:06:18;;;;;;;3.92;2.63;;;3.20;66.90;;;2.19;52.88;96243.94;5035102;28;20721;-78
2021/10/24 00:08:47;;;;;;;5.60;2.53;;;3.20;66.90;;;2.18;52.99;96239.69;5052501;28;20298;-78
2021/10/24 00:11:14;;;;;;;5.35;2.75;;;3.20;67.00;;;2.16;52.69;96248.50;5035829;28;20278;-78
2021/10/24 00:13:41;;;;;;;5.07;2.83;;;3.20;67.10;;;2.12;52.83;96245.28;5052088;28;20204;-78
2021/10/24 00:16:09;;;;;;;3.78;2.35;;;3.20;67.10;;;2.11;53.05;96248.81;5052346;28;20645;-79
2021/10/24 00:18:37;;;;;;;3.58;2.28;;;3.20;67.10;;;2.02;52.70;96228.75;5052252;28;20242;-78
2021/10/24 00:21:05;;;;;;;3.70;2.47;;;3.10;67.00;;;2.05;53.00;96241.47;5035849;28;20316;-79
2021/10/24 00:23:33;;;;;;;4.13;2.50;;;3.10;67.30;;;2.06;53.16;96253.47;5034454;28;20196;-78
2021/10/24 00:26:01;;;;;;;5.72;2.50;;;3.10;67.20;;;2.02;53.11;96249.44;5052197;28;20226;-78
2021/10/24 00:28:28;;;;;;;2.97;2.15;;;3.10;67.20;;;2.03;52.94;96251.13;5052741;28;20290;-79
2021/10/24 00:30:55;;;;;;;4.70;2.47;;;3.10;67.30;;;2.02;52.92;96250.28;5035859;28;20203;-78
2021/10/24 00:33:23;;;;;;;5.35;2.40;;;3.10;67.20;;;2.00;53.06;96262.50;5051466;28;20203;-78
2021/10/24 00:35:56;;;;;;;3.95;2.60;;;3.00;67.10;;;2.02;53.43;96259.81;5036574;28;20211;-78
2021/10/24 00:38:24;;;;;;;7.32;3.10;;;3.10;67.40;;;2.01;53.82;96258.16;5085463;28;20198;-78
2021/10/24 00:40:51;;;;;;;5.88;3.53;;;3.00;67.50;;;2.03;54.39;96246.75;5064724;28;20199;-79
2021/10/24 00:43:18;;;;;;;6.85;2.95;;;3.10;67.90;;;2.12;54.07;96254.81;5049096;28;20204;-78
2021/10/24 00:45:46;;;;;;;4.00;2.60;;;3.00;67.90;;;2.14;54.04;96248.59;5048737;28;20200;-78
2021/10/24 00:48:13;;;;;;;3.92;2.88;;;3.00;68.00;;;2.15;53.65;96242.50;5032152;28;20200;-78
2021/10/24 00:50:41;;;;;;;5.65;3.05;;;3.10;68.00;;;2.16;53.94;96251.06;5064916;28;20304;-78
2021/10/24 00:53:10;;;;;;;4.45;2.63;;;3.10;68.10;;;2.14;53.79;96240.84;5067142;28;20188;-77
2021/10/24 00:55:38;;;;;;;6.00;2.75;;;3.10;67.90;;;2.15;53.91;96245.09;5035594;28;20696;-78
2021/10/24 00:58:06;;;;;;;3.90;2.85;;;3.10;67.80;;;2.16;53.77;96243.31;5035684;28;20199;-78
2021/10/24 01:00:34;;;;;;;5.22;2.78;;;3.10;67.90;;;2.08;53.53;96234.31;5034746;28;20253;-78
2021/10/24 01:03:01;;;;;;;4.05;2.60;;;3.10;67.90;;;2.12;53.97;96247.06;5035377;28;20255;-78
2021/10/24 01:05:31;;;;;;;5.65;2.88;;;3.10;67.90;;;2.11;54.01;96248.81;5035280;28;20273;-79
2021/10/24 01:08:01;;;;;;;8.23;3.17;;;3.10;67.90;;;2.08;54.64;96247.25;5034919;28;20269;-78
2021/10/24 01:10:29;;;;;;;6.75;2.88;;;3.10;68.10;;;2.12;54.27;96249.66;5035579;28;20200;-78
2021/10/24 01:12:57;;;;;;;6.40;3.03;;;3.10;68.10;;;2.07;54.15;96224.06;5035142;28;20239;-79
2021/10/24 01:15:24;;;;;;;4.47;2.83;;;3.10;68.10;;;2.08;54.14;96223.97;5034839;28;20207;-78
2021/10/24 01:17:51;;;;;;;6.00;2.88;;;3.10;68.10;;;2.08;54.19;96231.72;5034685;28;20297;-78
2021/10/24 01:20:25;;;;;;;6.63;3.05;;;3.10;68.10;;;2.05;54.07;96233.69;5051849;28;20213;-79
2021/10/24 01:22:53;;;;;;;5.13;2.85;;;3.20;68.60;;;2.03;53.98;96240.75;5035104;28;20273;-78
2021/10/24 01:25:22;;;;;;;4.07;2.72;;;3.00;67.90;;;2.01;53.91;96240.84;5035033;28;20193;-78
2021/10/24 01:27:51;;;;;;;5.05;2.90;;;3.00;67.80;;;1.97;53.85;96230.84;5034477;28;20304;-78
2021/10/24 01:30:19;;;;;;;5.05;2.80;;;3.00;67.90;;;1.92;54.09;96228.56;5034438;28;20720;-78
2021/10/24 01:32:47;;;;;;;7.13;3.28;;;3.00;67.90;;;1.96;54.52;96231.75;5034386;28;20223;-78
2021/10/24 01:35:18;;;;;;;5.18;3.10;;;3.00;68.10;;;1.97;54.19;96234.25;5034925;28;20231;-79
2021/10/24 01:37:45;;;;;;;6.78;2.70;;;3.00;68.20;;;1.97;54.19;96230.84;5014589;28;20275;-78
2021/10/24 01:40:16;;;;;;;4.20;2.60;;;3.00;68.20;;;1.96;54.13;96227.41;5045621;28;20417;-78
2021/10/24 01:42:55;;;;;;;5.38;2.97;;;3.00;68.50;;;1.95;54.44;96220.56;5081079;28;20651;-78
2021/10/24 01:45:28;;;;;;;5.15;2.83;;;2.90;68.50;;;1.91;53.98;96221.72;5066456;28;20207;-79
2021/10/24 01:48:13;;;;;;;5.15;2.65;;;2.90;68.20;;;1.88;53.93;96220.19;5051594;28;20200;-78
2021/10/24 01:50:41;;;;;;;4.45;2.85;;;2.90;68.00;;;1.83;53.94;96222.25;5034535;28;20200;-78
2021/10/24 01:53:09;;;;;;;5.32;2.90;;;2.90;68.00;;;1.77;53.84;96217.50;5018190;28;20232;-79
2021/10/24 01:55:37;;;;;;;7.20;2.83;;;2.90;68.00;;;1.80;54.11;96224.22;5033862;28;20204;-76
2021/10/24 01:58:05;;;;;;;6.53;3.47;;;2.80;68.00;;;1.75;54.21;96220.19;5031078;28;20188;-78
2021/10/24 02:00:35;;;;;;;4.75;2.80;;;2.80;68.10;;;1.76;54.30;96221.84;5046490;28;20298;-78
2021/10/24 02:03:03;;;;;;;8.60;3.42;;;2.80;68.20;;;1.78;54.40;96220.91;5034426;28;20218;-78
2021/10/24 02:05:38;;;;;;;5.75;3.03;;;2.80;68.30;;;1.78;54.40;96215.75;5050618;28;20200;-78
2021/10/24 02:08:06;;;;;;;6.25;2.85;;;2.80;68.50;;;1.77;54.35;96220.09;5034008;28;20273;-77
2021/10/24 02:10:35;;;;;;;3.47;2.85;;;2.80;68.40;;;1.76;54.09;96215.84;5033036;28;20358;-77
2021/10/24 02:13:06;;;;;;;4.65;2.85;;;2.80;68.30;;;1.72;54.33;96212.66;5050407;28;20593;-78
2021/10/24 02:15:35;;;;;;;4.50;2.85;;;2.80;68.40;;;1.70;54.28;96213.69;5058806;28;20241;-78
2021/10/24 02:18:05;;;;;;;4.38;2.85;;;2.70;68.20;;;1.66;54.23;96205.31;5050032;28;20589;-78
2021/10/24 02:20:38;;;;;;;5.13;3.00;;;2.70;68.20;;;1.65;54.19;96210.56;5029605;28;20288;-78
2021/10/24 02:23:07;;;;;;;5.55;3.03;;;2.70;68.20;;;1.62;54.27;96205.63;5032691;28;20203;-78
2021/10/24 02:25:37;;;;;;;6.75;3.25;;;2.70;68.20;;;1.60;54.28;96211.72;5030789;28;20575;-76
2021/10/24 02:28:06;;;;;;;4.65;3.08;;;2.70;68.30;;;1.59;54.52;96201.47;5033904;28;20208;-77
2021/10/24 02:30:35;;;;;;;6.03;3.40;;;2.70;68.30;;;1.57;54.76;96208.50;5032813;28;20598;-77
2021/10/24 02:33:21;;;;;;;5.35;3.03;;;2.60;68.40;;;1.57;54.31;96213.69;5049012;28;20206;-77
2021/10/24 02:36:11;;;;;;;7.07;3.42;;;2.60;68.40;;;1.53;54.52;96205.31;5050174;28;20715;-77
2021/10/24 02:38:39;;;;;;;6.25;3.58;;;2.60;68.40;;;1.58;54.72;96205.00;5053310;28;20287;-78
2021/10/24 02:41:09;;;;;;;8.18;3.03;;;2.60;68.50;;;1.58;54.61;96202.41;5033310;28;20239;-77
2021/10/24 02:43:36;;;;;;;8.90;3.50;;;2.60;68.60;;;1.57;54.57;96200.75;5032858;28;20693;-78
2021/10/24 02:46:04;;;;;;;6.60;3.38;;;2.60;68.70;;;1.62;54.85;96203.84;5018035;28;20636;-77
2021/10/24 02:48:32;;;;;;;6.47;3.30;;;2.60;68.80;;;1.62;54.68;96193.50;5053454;28;20559;-78
2021/10/24 02:50:59;;;;;;;5.55;3.53;;;2.60;68.80;;;1.65;54.98;96197.63;5036889;28;20211;-78
2021/10/24 02:53:27;;;;;;;6.35;3.30;;;2.60;68.90;;;1.63;54.67;96186.59;5035272;28;20199;-78
2021/10/24 02:56:01;;;;;;;7.90;3.60;;;2.60;68.80;;;1.65;54.48;96195.88;5033448;28;20216;-78
2021/10/24 02:58:30;;;;;;;5.20;3.15;;;2.60;68.80;;;1.63;54.69;96190.00;5033803;28;20208;-77
2021/10/24 03:00:57;;;;;;;5.57;3.47;;;2.60;68.80;;;1.66;54.83;96196.69;5051342;28;20223;-78
2021/10/24 03:03:25;;;;;;;5.53;3.78;;;2.60;68.90;;;1.64;54.82;96196.81;5035206;28;20650;-78
2021/10/24 03:05:52;;;;;;;6.30;3.63;;;2.60;68.90;;;1.63;54.70;96199.50;5058750;28;20226;-77
2021/10/24 03:08:20;;;;;;;6.63;3.35;;;2.60;68.90;;;1.58;54.48;96192.88;5035248;28;20210;-78
2021/10/24 03:10:47;;;;;;;5.68;3.38;;;2.60;68.70;;;1.54;54.55;96190.63;5034851;28;20223;-78
2021/10/24 03:13:15;;;;;;;6.47;3.53;;;2.60;68.60;;;1.53;54.52;96202.72;5034916;28;20208;-76
2021/10/24 03:15:46;;;;;;;4.85;3.42;;;2.60;68.60;;;1.51;54.73;96206.34;5075087;28;20215;-77
2021/10/24 03:18:16;;;;;;;6.13;3.58;;;2.60;68.60;;;1.46;54.62;96200.66;5052987;28;20254;-76
2021/10/24 03:20:44;;;;;;;6.10;3.33;;;2.50;68.40;;;1.40;54.26;96207.06;5020216;28;20200;-78
2021/10/24 03:23:12;;;;;;;5.35;3.40;;;2.50;69.40;;;1.35;54.49;96211.72;5036207;28;20204;-77
2021/10/24 03:25:40;;;;;;;6.78;3.88;;;2.50;68.40;;;1.33;54.70;96216.16;5036158;28;20350;-77
2021/10/24 03:28:08;;;;;;;4.88;3.13;;;2.40;68.40;;;1.29;54.53;96220.69;5034781;28;20216;-76
2021/10/24 03:30:36;;;;;;;6.75;3.60;;;2.40;68.40;;;1.26;54.59;96220.91;5036383;28;20277;-76
2021/10/24 03:33:04;;;;;;;7.70;3.38;;;2.40;68.40;;;1.22;54.51;96222.88;5053222;28;20226;-78
2021/10/24 03:35:32;;;;;;;6.53;3.55;;;2.40;68.40;;;1.18;54.69;96223.97;5052348;28;20207;-76
2021/10/24 03:38:00;;;;;;;7.03;3.60;;;2.30;68.40;;;1.17;54.87;96222.31;5043122;28;20221;-78
2021/10/24 03:40:28;;;;;;;7.43;4.03;;;2.30;68.50;;;1.16;54.65;96222.44;5052637;28;20188;-78
2021/10/24 03:42:55;;;;;;;6.20;4.25;;;2.30;68.60;;;1.15;54.65;96226.78;5035789;28;20232;-77
2021/10/24 03:45:23;;;;;;;6.53;3.80;;;2.20;68.60;;;1.12;54.83;96226.97;5033700;28;20678;-78
2021/10/24 03:47:51;;;;;;;7.32;3.90;;;2.20;68.60;;;1.10;54.79;96219.31;5035108;28;20224;-76
2021/10/24 03:50:19;;;;;;;10.10;4.50;;;2.20;68.60;;;1.07;54.52;96216.94;5050876;28;20220;-77
2021/10/24 03:52:47;;;;;;;6.13;4.35;;;2.20;68.80;;;1.11;55.01;96215.81;5060513;28;20223;-78
2021/10/24 03:55:14;;;;;;;9.60;4.88;;;2.20;68.90;;;1.10;55.01;96214.16;5057051;28;20197;-76
2021/10/24 03:57:43;;;;;;;8.15;4.40;;;2.20;68.90;;;1.12;55.21;96216.63;5033955;28;20221;-77
2021/10/24 04:00:13;;;;;;;6.85;4.60;;;2.20;69.00;;;1.14;55.10;96221.72;5060203;28;20188;-78
2021/10/24 04:02:59;;;;;;;9.00;5.00;;;2.20;69.00;;;1.13;54.96;96220.88;5051709;28;20215;-77
2021/10/24 04:05:34;;;;;;;11.90;5.05;;;2.20;69.40;;;1.10;55.24;96214.16;5035804;28;20681;-77
2021/10/24 04:08:02;;;;;;;8.40;4.85;;;2.20;69.00;;;1.11;55.23;96218.41;5059459;28;20640;-76
2021/10/24 04:10:31;;;;;;;9.23;4.80;;;2.20;69.10;;;1.12;55.20;96221.81;5030072;28;20236;-78
2021/10/24 04:12:59;;;;;;;10.35;4.78;;;2.20;69.10;;;1.10;55.31;96221.91;5051226;28;20600;-77
2021/10/24 04:15:27;;;;;;;10.10;5.05;;;2.20;69.10;;;1.08;55.15;96217.78;5034018;28;20203;-78
2021/10/24 04:17:56;;;;;;;7.00;4.57;;;2.20;69.20;;;1.10;55.43;96227.09;5035032;28;20278;-78
2021/10/24 04:20:26;;;;;;;7.15;4.50;;;2.20;69.20;;;1.09;54.99;96225.41;5034759;28;20619;-76
2021/10/24 04:22:54;;;;;;;7.65;4.57;;;2.10;69.10;;;1.10;54.97;96232.25;5032177;28;20605;-77
2021/10/24 04:25:25;;;;;;;8.27;4.82;;;2.10;69.20;;;1.05;55.15;96220.56;5054521;28;20684;-77
2021/10/24 04:27:54;;;;;;;9.48;4.55;;;2.20;69.30;;;1.10;55.23;96228.84;5050535;28;20223;-78
2021/10/24 04:30:21;;;;;;;8.75;4.65;;;2.10;69.30;;;1.09;55.37;96228.00;5030317;28;20234;-77
2021/10/24 04:32:49;;;;;;;7.90;4.35;;;2.10;69.30;;;1.09;55.57;96225.41;5014468;28;20519;-78
2021/10/24 04:35:17;;;;;;;9.35;4.65;;;2.10;69.40;;;1.10;55.45;96221.91;5048563;28;20216;-77
2021/10/24 04:37:45;;;;;;;7.72;4.25;;;2.10;69.60;;;1.13;55.53;96227.81;5014101;28;20244;-77
2021/10/24 04:40:13;;;;;;;9.52;4.38;;;2.10;69.50;;;1.13;55.33;96227.81;5014893;28;20200;-78
2021/10/24 04:42:49;;;;;;;6.55;3.95;;;2.10;69.50;;;1.11;55.47;96218.41;5047582;28;20236;-77
2021/10/24 04:45:17;;;;;;;5.28;3.95;;;2.10;69.50;;;1.14;55.22;96234.66;5038219;28;20272;-78
2021/10/24 04:47:44;;;;;;;7.45;4.30;;;2.10;69.50;;;1.11;55.36;96225.31;5032282;28;20326;-77
2021/10/24 04:50:12;;;;;;;10.32;4.13;;;2.10;69.60;;;1.11;55.35;96225.31;5067332;28;20705;-77
2021/10/24 04:52:39;;;;;;;6.72;4.22;;;2.10;69.60;;;1.11;55.63;96226.16;5068484;28;20302;-78
2021/10/24 04:55:07;;;;;;;8.95;4.05;;;2.10;69.60;;;1.11;55.41;96226.16;5048519;28;20265;-78
2021/10/24 04:57:36;;;;;;;6.88;3.72;;;2.10;69.60;;;1.10;55.46;96224.50;5031864;28;20212;-78
2021/10/24 05:00:07;;;;;;;8.77;3.83;;;2.10;69.60;;;1.10;55.50;96218.50;5016203;28;20614;-78
2021/10/24 05:02:36;;;;;;;7.32;3.83;;;2.10;69.60;;;1.06;55.44;96220.47;5016133;28;20230;-78
2021/10/24 05:05:05;;;;;;;5.78;3.70;;;2.10;69.70;;;1.07;55.64;96218.69;5065247;28;20670;-78
2021/10/24 05:07:33;;;;;;;6.25;4.07;;;2.10;69.70;;;1.07;55.31;96222.09;5048794;28;20709;-77
2021/10/24 05:10:01;;;;;;;7.72;3.90;;;2.10;69.70;;;1.06;55.80;96223.06;5014920;28;20251;-78
2021/10/24 05:12:29;;;;;;;6.93;3.83;;;2.10;69.80;;;1.06;55.51;96219.63;5000114;28;20247;-78
2021/10/24 05:14:58;;;;;;;8.23;4.10;;;2.10;69.70;;;1.05;55.79;96223.97;5035282;28;20257;-77
2021/10/24 05:17:26;;;;;;;5.50;3.83;;;2.10;69.80;;;1.03;55.79;96215.50;5034438;28;20567;-78
2021/10/24 05:19:53;;;;;;;6.85;3.72;;;2.10;69.80;;;1.01;55.59;96216.53;5018049;28;20192;-78
2021/10/24 05:22:21;;;;;;;7.95;3.70;;;2.10;69.90;;;1.03;55.53;96223.25;5035513;28;20243;-78
2021/10/24 05:24:49;;;;;;;7.90;4.10;;;2.10;69.90;;;1.01;55.64;96217.34;5034646;28;20650;-78
2021/10/24 05:27:17;;;;;;;6.93;3.60;;;2.10;70.00;;;1.02;55.80;96220.75;5035252;28;20231;-77
2021/10/24 05:29:45;;;;;;;8.63;4.32;;;2.10;70.00;;;1.01;55.93;96219.09;5034756;28;20311;-78
2021/10/24 05:32:12;;;;;;;6.70;4.03;;;2.10;70.00;;;1.02;55.75;96223.34;5034767;28;20266;-77
2021/10/24 05:34:42;;;;;;;6.80;4.13;;;2.10;70.10;;;1.02;55.88;96226.75;5050331;28;20208;-76
2021/10/24 05:37:16;;;;;;;9.32;4.50;;;2.00;70.00;;;1.00;56.36;96233.78;5051403;28;20226;-77
2021/10/24 05:39:43;;;;;;;9.13;4.65;;;2.10;70.00;;;1.00;55.64;96222.63;5034742;28;20547;-78
2021/10/24 05:42:30;;;;;;;8.52;4.60;;;2.00;70.00;;;1.01;56.00;96219.91;5037406;28;20277;-78
2021/10/24 05:44:58;;;;;;;9.85;4.47;;;2.00;70.00;;;1.03;55.98;96222.44;5050839;28;20297;-77
2021/10/24 05:47:28;;;;;;;8.43;4.50;;;2.00;70.10;;;1.05;56.03;96220.56;5034902;28;20222;-77
2021/10/24 05:50:04;;;;;;;6.68;4.47;;;2.00;70.20;;;1.06;55.86;96225.63;5036197;28;20232;-78
2021/10/24 05:52:33;;;;;;;11.48;4.97;;;2.10;70.30;;;1.07;56.10;96223.88;5018718;28;20215;-77
2021/10/24 05:55:00;;;;;;;7.32;4.28;;;2.00;70.20;;;1.09;56.08;96228.00;5050122;28;20577;-77
2021/10/24 05:57:30;;;;;;;7.85;3.60;;;2.10;70.30;;;1.13;55.82;96230.41;5035326;28;20273;-77
2021/10/24 06:00:20;;;;;;;8.23;4.50;;;2.10;71.20;;;1.17;56.09;96227.50;5043088;28;20567;-78
2021/10/24 06:03:10;;;;;;;7.40;4.15;;;2.10;70.30;;;1.22;55.94;96232.38;5043198;28;20214;-78
2021/10/24 06:06:07;;;;;;;8.30;4.38;;;2.10;70.30;;;1.26;55.87;96232.06;5050186;28;20291;-78
2021/10/24 06:08:36;;;;;;;8.93;4.35;;;2.20;70.40;;;1.32;55.98;96233.44;5051175;28;20200;-78
2021/10/24 06:11:14;;;;;;;8.20;4.50;;;2.20;70.40;;;1.39;55.90;96233.84;5050706;28;20227;-78
2021/10/24 06:13:41;;;;;;;7.72;4.65;;;2.20;70.40;;;1.45;56.20;96223.06;5052270;28;20200;-78
2021/10/24 06:16:09;;;;;;;10.07;5.05;;;2.20;70.40;;;1.54;56.05;96232.81;5034053;28;20248;-78
2021/10/24 06:18:38;;;;;;;9.80;4.95;;;2.30;70.50;;;1.62;56.02;96221.94;5051031;28;20208;-79
2021/10/24 06:21:05;;;;;;;9.00;5.10;;;2.40;70.60;;;1.70;56.27;96234.38;5053807;28;20689;-78
2021/10/24 06:23:33;;;;;;;9.50;4.93;;;2.40;70.50;;;1.80;56.07;96237.16;5038601;28;20206;-78
2021/10/24 06:26:01;;;;;;;10.07;4.97;;;2.50;70.60;;;1.85;56.05;96240.25;5021280;28;20220;-76
2021/10/24 06:28:29;;;;;;;9.23;5.30;;;2.50;70.60;;;1.98;56.09;96245.41;5038351;28;20658;-77
2021/10/24 06:30:56;;;;;;;17.25;5.47;;;2.60;70.70;;;2.04;56.04;96243.22;5034752;28;20307;-76
2021/10/24 06:33:45;;;;;;;9.75;5.15;;;2.70;70.80;;;2.15;56.11;96247.66;5040089;28;20286;-77
2021/10/24 06:36:50;;;;;;;9.23;5.00;;;2.70;70.70;;;2.24;56.01;96248.78;5034086;28;20235;-78
2021/10/24 06:39:26;;;;;;;8.95;4.88;;;2.90;70.90;;;2.32;56.35;96251.69;5034698;28;20294;-77
2021/10/24 06:41:54;;;;;;;11.07;5.88;;;2.90;70.90;;;2.43;55.99;96255.25;5054727;28;20306;-77
2021/10/24 06:44:49;;;;;;;12.52;6.68;;;3.00;71.00;;;2.53;56.25;96246.75;5054515;28;20184;-79
2021/10/24 06:47:37;;;;;;;10.63;6.18;;;3.10;71.00;;;2.62;56.23;96257.38;5055015;28;20227;-78
2021/10/24 06:50:23;;;;;;;9.77;5.85;;;3.20;71.10;;;2.71;56.07;96256.72;5054763;28;20218;-79
2021/10/24 06:52:57;;;;;;;10.45;6.05;;;3.20;71.10;;;2.79;56.12;96257.00;5054369;28;20226;-78
2021/10/24 06:55:46;;;;;;;15.38;5.95;;;3.30;71.20;;;2.88;56.15;96269.31;5053637;28;20721;-78
2021/10/24 06:58:43;;;;;;;9.50;5.53;;;3.40;71.30;;;2.98;55.59;96266.03;5024958;28;20209;-78
2021/10/24 07:01:28;;;;;;;11.88;6.00;;;3.50;71.30;;;3.07;55.91;96259.38;5048649;28;20221;-79
2021/10/24 07:04:15;;;;;;;8.85;6.05;;;3.50;71.30;;;3.12;55.88;96260.69;5039356;28;20226;-77
2021/10/24 07:07:00;;;;;;;11.55;6.47;;;3.60;71.40;;;3.25;55.86;96273.56;5025926;28;20252;-77
2021/10/24 07:09:44;;;;;;;8.57;5.53;;;3.70;71.50;;;3.32;56.03;96261.81;5039947;28;20204;-78
2021/10/24 07:12:12;;;;;;;11.23;5.57;;;3.80;71.50;;;3.42;56.20;96266.31;5054297;28;20232;-79
2021/10/24 07:14:39;;;;;;;9.45;5.50;;;3.90;71.60;;;3.51;56.07;96269.03;5020086;28;20700;-78
2021/10/24 07:17:06;;;;;;;11.02;5.35;;;3.90;71.60;;;3.61;56.11;96268.38;5037044;28;20216;-78
2021/10/24 07:19:34;;;;;;;10.00;5.78;;;4.00;71.70;;;3.71;56.22;96266.75;5070059;28;20204;-78
2021/10/24 07:22:07;;;;;;;8.90;5.32;;;4.10;71.70;;;3.82;55.98;96264.16;5052961;28;20689;-78
2021/10/24 07:24:57;;;;;;;9.38;5.45;;;4.20;71.80;;;3.93;55.98;96268.53;5040496;28;20662;-79
2021/10/24 07:27:29;;;;;;;10.10;5.28;;;4.30;71.90;;;4.04;56.19;96267.72;5036057;28;20263;-78
2021/10/24 07:29:58;;;;;;;8.95;5.50;;;4.40;71.90;;;4.13;56.06;96261.81;5070421;28;20231;-78
2021/10/24 07:32:26;;;;;;;10.18;5.50;;;4.50;72.00;;;4.23;56.08;96263.72;5034921;28;20232;-76
2021/10/24 07:35:12;;;;;;;8.15;4.80;;;4.60;72.10;;;4.35;55.93;96267.94;5078348;28;20210;-77
2021/10/24 07:37:40;;;;;;;8.68;5.53;;;4.70;72.10;;;4.45;56.30;96260.25;5053436;28;20257;-78
2021/10/24 07:40:10;;;;;;;8.32;5.35;;;4.70;72.20;;;4.55;55.97;96263.78;5016404;28;20203;-78
2021/10/24 07:42:39;;;;;;;10.45;5.10;;;4.90;72.30;;;4.67;56.18;96266.38;5036843;28;20281;-78
2021/10/24 07:45:08;;;;;;;10.98;5.30;;;4.90;72.30;;;4.78;55.91;96269.75;5050512;28;20667;-77
2021/10/24 07:47:38;;;;;;;8.43;5.03;;;5.00;72.30;;;4.91;56.25;96266.19;5036186;28;20698;-77
2021/10/24 07:50:08;;;;;;;6.03;4.20;;;5.20;72.50;;;5.02;55.89;96260.94;5036898;28;20216;-78
2021/10/24 07:52:40;;;;;;;7.97;4.70;;;5.20;72.50;;;5.15;56.29;96260.78;5017734;28;20228;-78
2021/10/24 07:55:19;;;;;;;7.70;5.03;;;5.40;72.50;;;5.29;56.16;96255.28;5033461;28;20287;-77
2021/10/24 07:57:47;;;;;;;7.88;4.75;;;5.50;72.40;;;5.42;56.06;96265.50;5066131;28;20216;-77
2021/10/24 08:00:14;;;;;;;8.07;4.45;;;5.60;72.30;;;5.55;56.29;96261.88;5033075;28;20694;-78
2021/10/24 08:02:44;;;;;;;9.10;4.75;;;5.70;72.30;;;5.67;56.10;96258.25;5035481;28;20229;-78
2021/10/24 08:05:15;;;;;;;5.93;4.35;;;5.80;72.30;;;5.80;56.18;96254.63;5039122;28;20192;-77
2021/10/24 08:07:43;;;;;;;9.82;4.60;;;5.90;72.20;;;5.91;56.23;96251.97;5052581;28;20246;-78
2021/10/24 08:10:15;;;;;;;7.65;4.32;;;6.10;72.30;;;6.01;56.14;96247.66;5037122;28;20294;-77
2021/10/24 08:12:45;;;;;;;8.05;4.38;;;6.10;72.20;;;6.12;56.10;96253.75;5016925;28;20260;-78
2021/10/24 08:15:13;;;;;;;8.13;4.50;;;6.30;72.20;;;6.25;56.18;96251.75;5036581;28;20200;-78
2021/10/24 08:17:44;;;;;;;8.75;5.30;;;6.40;72.30;;;6.35;56.22;96247.38;5052524;28;20588;-77
2021/10/24 08:20:40;;;;;;;11.93;5.43;;;6.50;72.40;;;6.48;56.28;96244.53;5040438;28;20192;-77
2021/10/24 08:23:07;;;;;;;11.10;5.82;;;6.60;72.30;;;6.60;56.24;96245.25;5021470;28;20515;-78
2021/10/24 08:25:37;;;;;;;9.73;5.80;;;6.70;72.30;;;6.71;56.19;96242.53;5018287;28;20300;-77
2021/10/24 08:28:05;;;;;;;11.30;6.10;;;6.80;72.40;;;6.81;56.42;96242.56;5049359;28;20227;-78
2021/10/24 08:30:54;;;;;;;11.93;6.78;;;6.90;72.40;;;6.97;56.02;96235.97;5042939;28;20235;-78
2021/10/24 08:33:34;;;;;;;10.10;6.50;;;7.10;72.40;;;7.09;56.44;96231.44;5036842;28;20208;-78
2021/10/24 08:36:02;;;;;;;8.60;5.72;;;7.20;72.40;;;7.23;56.37;96233.63;5053542;28;20557;-78
2021/10/24 08:38:31;;;;;;;7.95;5.13;;;7.30;72.50;;;7.33;56.15;96231.84;5032429;28;20192;-78
2021/10/24 08:41:02;;;;;;;10.88;5.65;;;7.40;72.50;;;7.48;56.51;96236.63;5034566;28;20206;-78
2021/10/24 08:43:32;;;;;;;10.30;5.82;;;7.50;72.50;;;7.59;56.16;96227.81;5035382;28;20561;-78
2021/10/24 08:46:02;;;;;;;15.00;7.63;;;7.70;72.60;;;7.72;56.04;96228.34;5052081;28;20222;-79
2021/10/24 08:48:31;;;;;;;14.88;8.02;;;7.70;72.50;;;7.84;56.49;96231.63;5051561;28;20321;-79
2021/10/24 08:50:58;;;;;;;11.93;6.90;;;7.90;72.50;;;7.93;56.13;96216.88;5031741;28;20228;-78
2021/10/24 08:53:28;;;;;;;11.23;6.07;;;8.00;72.50;;;8.07;56.45;96223.41;5016592;28;20200;-79
2021/10/24 08:55:56;;;;;;;10.30;5.28;;;8.10;72.50;;;8.21;56.14;96214.28;5050810;28;20184;-79
2021/10/24 08:58:24;;;;;;;10.43;5.05;;;8.30;72.50;;;8.31;56.05;96213.28;5043529;28;20200;-79
2021/10/24 09:00:53;;;;;;;8.60;4.95;;;8.40;72.50;;;8.45;56.21;96216.38;5035562;28;20210;-78
2021/10/24 09:03:20;;;;;;;10.23;4.93;;;8.50;72.50;;;8.58;56.30;96219.50;5031207;28;20204;-80
2021/10/24 09:05:54;;;;;;;8.32;4.47;;;8.60;72.40;;;8.70;55.99;96208.81;5048723;28;20575;-80
2021/10/24 09:08:24;;;;;;;7.90;4.80;;;8.70;72.30;;;8.84;56.15;96212.72;5001163;28;20267;-79
2021/10/24 09:10:55;;;;;;;10.80;4.90;;;8.80;72.20;;;8.94;55.81;96203.81;5009063;28;20200;-78
2021/10/24 09:13:35;;;;;;;6.68;4.00;;;9.00;72.20;;;9.06;55.53;96208.84;5026498;28;20553;-80
2021/10/24 09:16:07;;;;;;;7.53;4.40;;;9.10;72.00;;;9.16;55.48;96200.91;5008961;28;20320;-80
2021/10/24 09:18:39;;;;;;;5.47;3.47;;;9.20;71.80;;;9.24;55.33;96199.19;5028017;28;20189;-79
2021/10/24 09:21:15;;;;;;;10.88;4.90;;;9.30;71.70;;;9.33;55.03;96200.06;5024439;28;20587;-79
2021/10/24 09:23:44;;;;;;;5.40;3.20;;;9.40;71.50;;;9.40;55.11;96190.63;4998597;28;20647;-79
2021/10/24 09:26:26;;;;;;;7.85;3.90;;;9.60;71.50;;;9.54;54.58;96198.91;5028145;28;20217;-79
2021/10/24 09:29:07;;;;;;;6.28;3.17;;;9.60;70.90;;;9.63;54.51;96205.03;5027988;28;20200;-79
2021/10/24 09:31:44;;;;;;;8.48;3.53;;;9.70;71.00;;;9.72;54.00;96198.88;5007491;28;20241;-79
2021/10/24 09:34:24;;;;;;;5.72;3.33;;;9.80;70.80;;;9.77;53.87;96183.50;5010857;28;20239;-81
2021/10/24 09:37:23;;;;;;;7.03;3.33;;;9.90;70.50;;;9.91;53.75;96187.34;5028172;28;20224;-79
2021/10/24 09:40:10;;;;;;;6.13;3.03;;;10.00;69.20;;;9.98;53.75;96193.59;5020344;28;20223;-79
2021/10/24 09:42:37;;;;;;;6.78;3.30;;;10.10;69.00;;;10.09;53.58;96192.50;5044381;28;20224;-79
2021/10/24 09:45:13;;;;;;;7.45;2.90;;;10.10;69.00;;;10.18;53.13;96193.34;5021403;28;20597;-80
2021/10/24 09:47:45;;;;;;;7.45;3.10;;;10.20;68.70;;;10.24;52.38;96179.59;5023463;28;20224;-79
2021/10/24 09:50:33;;;;;;;7.68;2.88;;;10.30;68.40;;;10.32;52.78;96191.94;4992044;28;20289;-79
2021/10/24 09:53:29;;;;;;;4.22;2.92;;;10.40;68.10;;;10.37;52.53;96193.13;5011210;28;20209;-80
2021/10/24 09:55:56;;;;;;;5.95;2.65;;;10.50;68.10;;;10.46;52.55;96186.13;5010687;28;20292;-79
2021/10/24 09:58:24;;;;;;;7.00;3.30;;;10.50;68.80;;;10.55;52.42;96182.53;5011242;28;20581;-79
2021/10/24 10:00:51;;;;;;;7.22;2.80;;;10.60;68.10;;;10.64;52.89;96179.94;5026866;28;20686;-79
2021/10/24 10:03:20;;;;;;;6.65;3.08;;;10.70;68.10;;;10.71;51.96;96188.81;5026687;28;20284;-79
2021/10/24 10:05:47;;;;;;;4.95;3.17;;;10.80;68.00;;;10.80;52.29;96189.66;4991331;28;20244;-79
2021/10/24 10:08:37;;;;;;;5.07;2.88;;;10.80;67.90;;;10.87;51.72;96180.94;5013046;28;20457;-78
2021/10/24 10:11:28;;;;;;;6.38;3.50;;;11.00;67.80;;;10.94;51.45;96181.13;5012006;28;20224;-79
2021/10/24 10:14:05;;;;;;;7.93;2.97;;;11.00;67.30;;;11.01;51.33;96182.13;5026085;28;20197;-78
2021/10/24 10:16:41;;;;;;;5.55;2.90;;;11.10;67.20;;;11.02;50.93;96175.91;5014909;28;20222;-78
2021/10/24 10:19:13;;;;;;;6.22;3.08;;;11.10;66.90;;;11.08;50.96;96177.03;4980434;28;20205;-79
2021/10/24 10:21:49;;;;;;;7.35;2.63;;;11.20;67.10;;;11.14;51.04;96170.31;4978509;28;20264;-79
2021/10/24 10:24:35;;;;;;;7.70;3.00;;;11.20;67.00;;;11.25;50.97;96174.44;4994133;28;20296;-78
2021/10/24 10:27:27;;;;;;;4.75;2.55;;;11.30;66.80;;;11.29;50.68;96167.84;5010198;28;20225;-78
2021/10/24 10:30:01;;;;;;;4.78;2.45;;;11.40;66.80;;;11.32;50.58;96168.34;4994389;28;20213;-78
2021/10/24 10:32:45;;;;;;;6.88;2.92;;;11.50;66.40;;;11.38;49.92;96172.13;4992712;28;20225;-78
2021/10/24 10:35:25;;;;;;;5.72;2.72;;;11.40;65.80;;;11.44;49.87;96176.72;5009517;28;20267;-79
2021/10/24 10:38:03;;;;;;;8.50;3.25;;;11.50;65.90;;;11.48;49.80;96171.94;4997596;28;20227;-78
2021/10/24 10:40:38;;;;;;;7.55;3.15;;;11.60;66.10;;;11.52;49.61;96181.13;4997164;28;20197;-80
2021/10/24 10:43:21;;;;;;;7.00;3.20;;;11.60;65.80;;;11.53;49.36;96169.63;5010154;28;20235;-80
2021/10/24 10:46:00;;;;;;;6.57;3.22;;;11.70;65.60;;;11.62;49.48;96175.69;5004216;28;20229;-79
2021/10/24 10:48:42;;;;;;;8.93;3.30;;;11.70;65.50;;;11.65;49.44;96167.50;5009689;28;20193;-78
2021/10/24 10:51:23;;;;;;;6.55;3.00;;;11.80;65.60;;;11.71;49.15;96166.81;4997621;28;20241;-79